EIN5LW EIDW-LFBD
Flight info
| Callsign | EIN5LW |
|---|---|
| Flight time | 1h 31m |
| Altitude | 39000 |
| Route | PESIT2J PESIT DCT BAKUR DCT GUBJE DCT GISOK DCT TACQI DCT MANIG DCT BADUR DCT KORER UM616 TERPO/N0426F290 UM616 TUPAR DCT CNA |
| Aircraft | A20N/M-SDE2E3FGHIRWXY/LB1 |
Departure
| Time | 2026-05-03 20:54 |
|---|---|
| Airport | Dublin Airport (EIDW) |
Arrival
| Time | 2026-05-03 22:25 |
|---|---|
| Airport | Bordeaux–Mérignac Airport (LFBD) |
| Time | Latitude | Longitude | Altitude | Speed | Heading |
|---|---|---|---|---|---|
| 2026-05-03 20:42 | 53.42559 | -6.24728 | 249 ft | 2 kts | 71° |
| 2026-05-03 20:42 | 53.42554 | -6.24751 | 249 ft | 2 kts | 70° |
| 2026-05-03 20:42 | 53.42549 | -6.24775 | 249 ft | 2 kts | 71° |
| 2026-05-03 20:42 | 53.42545 | -6.24791 | 249 ft | 2 kts | 60° |
| 2026-05-03 20:43 | 53.42534 | -6.24808 | 249 ft | 2 kts | 19° |
| 2026-05-03 20:43 | 53.42519 | -6.24810 | 249 ft | 1 kts | 344° |
| 2026-05-03 20:43 | 53.42513 | -6.24805 | 249 ft | 1 kts | 333° |
| 2026-05-03 20:43 | 53.42510 | -6.24803 | 249 ft | 0 kts | 336° |
| 2026-05-03 20:46 | 53.42514 | -6.24807 | 249 ft | 3 kts | 336° |
| 2026-05-03 20:46 | 53.42558 | -6.24837 | 249 ft | 10 kts | 338° |
| 2026-05-03 20:47 | 53.42646 | -6.24904 | 249 ft | 17 kts | 330° |
| 2026-05-03 20:47 | 53.42752 | -6.25009 | 249 ft | 17 kts | 329° |
| 2026-05-03 20:47 | 53.42794 | -6.25178 | 249 ft | 15 kts | 281° |
| 2026-05-03 20:47 | 53.42754 | -6.25324 | 249 ft | 15 kts | 225° |
| 2026-05-03 20:48 | 53.42671 | -6.25465 | 249 ft | 18 kts | 226° |
| 2026-05-03 20:48 | 53.42574 | -6.25636 | 249 ft | 21 kts | 225° |
| 2026-05-03 20:48 | 53.42458 | -6.25826 | 249 ft | 24 kts | 225° |
| 2026-05-03 20:48 | 53.42335 | -6.26030 | 249 ft | 24 kts | 226° |
| 2026-05-03 20:49 | 53.42267 | -6.26271 | 249 ft | 23 kts | 272° |
| 2026-05-03 20:49 | 53.42281 | -6.26541 | 249 ft | 23 kts | 276° |
| 2026-05-03 20:49 | 53.42305 | -6.26829 | 249 ft | 25 kts | 276° |
| 2026-05-03 20:49 | 53.42313 | -6.27139 | 249 ft | 27 kts | 275° |
| 2026-05-03 20:50 | 53.42331 | -6.27459 | 249 ft | 27 kts | 276° |
| 2026-05-03 20:50 | 53.42348 | -6.27771 | 249 ft | 26 kts | 276° |
| 2026-05-03 20:50 | 53.42365 | -6.28082 | 249 ft | 27 kts | 276° |
| 2026-05-03 20:50 | 53.42383 | -6.28400 | 249 ft | 27 kts | 275° |
| 2026-05-03 20:51 | 53.42401 | -6.28724 | 249 ft | 24 kts | 275° |
| 2026-05-03 20:51 | 53.42409 | -6.28982 | 249 ft | 20 kts | 255° |
| 2026-05-03 20:51 | 53.42312 | -6.29069 | 249 ft | 12 kts | 174° |
| 2026-05-03 20:51 | 53.42243 | -6.29024 | 249 ft | 4 kts | 98° |
| 2026-05-03 20:52 | 53.42243 | -6.29019 | 249 ft | 0 kts | 95° |
| 2026-05-03 20:53 | 53.42242 | -6.29006 | 249 ft | 5 kts | 95° |
| 2026-05-03 20:53 | 53.42218 | -6.28549 | 249 ft | 76 kts | 95° |
| 2026-05-03 20:53 | 53.42151 | -6.27302 | 249 ft | 137 kts | 95° |
| 2026-05-03 20:54 | 53.42043 | -6.25459 | 417 ft | 171 kts | 94° |
| 2026-05-03 20:54 | 53.41806 | -6.21610 | 1845 ft | 168 kts | 91° |
| 2026-05-03 20:54 | 53.41711 | -6.19682 | 2539 ft | 171 kts | 90° |
| 2026-05-03 20:55 | 53.41611 | -6.17618 | 3022 ft | 187 kts | 91° |
| 2026-05-03 20:55 | 53.41497 | -6.15370 | 3546 ft | 201 kts | 91° |
| 2026-05-03 20:55 | 53.41371 | -6.12997 | 4061 ft | 217 kts | 91° |
| 2026-05-03 20:55 | 53.41227 | -6.10343 | 4492 ft | 239 kts | 92° |
| 2026-05-03 20:56 | 53.41068 | -6.07482 | 5066 ft | 255 kts | 92° |
| 2026-05-03 20:56 | 53.40873 | -6.04506 | 5867 ft | 263 kts | 99° |
| 2026-05-03 20:56 | 53.40087 | -6.01705 | 6712 ft | 273 kts | 129° |
| 2026-05-03 20:56 | 53.38555 | -5.99845 | 7566 ft | 282 kts | 157° |
| 2026-05-03 20:57 | 53.36613 | -5.99373 | 8359 ft | 290 kts | 185° |
| 2026-05-03 20:57 | 53.34620 | -5.99933 | 9180 ft | 294 kts | 190° |
| 2026-05-03 20:57 | 53.32602 | -6.00557 | 9980 ft | 299 kts | 190° |
| 2026-05-03 20:57 | 53.30526 | -6.01171 | 10610 ft | 308 kts | 190° |
| 2026-05-03 20:58 | 53.28350 | -6.01933 | 11017 ft | 326 kts | 194° |
| 2026-05-03 20:58 | 53.26098 | -6.03001 | 11386 ft | 344 kts | 197° |
| 2026-05-03 20:58 | 53.23770 | -6.04194 | 11950 ft | 354 kts | 197° |
| 2026-05-03 20:58 | 53.21398 | -6.05385 | 12699 ft | 358 kts | 194° |
| 2026-05-03 20:59 | 53.18985 | -6.06304 | 13470 ft | 360 kts | 189° |
| 2026-05-03 20:59 | 53.16500 | -6.06888 | 14193 ft | 363 kts | 185° |
| 2026-05-03 20:59 | 53.13977 | -6.07312 | 14919 ft | 366 kts | 184° |
| 2026-05-03 20:59 | 53.11417 | -6.07334 | 15603 ft | 369 kts | 174° |
| 2026-05-03 21:00 | 53.08853 | -6.06674 | 16276 ft | 372 kts | 165° |
| 2026-05-03 21:00 | 53.07984 | -6.06313 | 16507 ft | 372 kts | 164° |
| 2026-05-03 21:00 | 53.03760 | -6.04378 | 17606 ft | 378 kts | 163° |
| 2026-05-03 21:00 | 53.01197 | -6.03182 | 18253 ft | 381 kts | 162° |
| 2026-05-03 21:01 | 52.98584 | -6.01972 | 18883 ft | 384 kts | 163° |
| 2026-05-03 21:01 | 52.95947 | -6.00760 | 19488 ft | 388 kts | 163° |
| 2026-05-03 21:01 | 52.93304 | -5.99553 | 20083 ft | 391 kts | 162° |
| 2026-05-03 21:01 | 52.90648 | -5.98346 | 20668 ft | 395 kts | 162° |
| 2026-05-03 21:02 | 52.87987 | -5.97138 | 21225 ft | 398 kts | 162° |
| 2026-05-03 21:02 | 52.85291 | -5.95916 | 21787 ft | 401 kts | 162° |
| 2026-05-03 21:02 | 52.82548 | -5.94676 | 22349 ft | 404 kts | 162° |
| 2026-05-03 21:02 | 52.79851 | -5.93459 | 22891 ft | 407 kts | 162° |
| 2026-05-03 21:03 | 52.77097 | -5.92220 | 23413 ft | 410 kts | 162° |
| 2026-05-03 21:03 | 52.74324 | -5.90972 | 23930 ft | 412 kts | 162° |
| 2026-05-03 21:03 | 52.71524 | -5.89714 | 24429 ft | 415 kts | 162° |
| 2026-05-03 21:03 | 52.68699 | -5.88446 | 24907 ft | 417 kts | 162° |
| 2026-05-03 21:04 | 52.65857 | -5.87173 | 25367 ft | 420 kts | 162° |
| 2026-05-03 21:04 | 52.62996 | -5.85894 | 25802 ft | 423 kts | 162° |
| 2026-05-03 21:04 | 52.60145 | -5.84619 | 26222 ft | 426 kts | 162° |
| 2026-05-03 21:04 | 52.57238 | -5.83324 | 26642 ft | 428 kts | 162° |
| 2026-05-03 21:05 | 52.54307 | -5.82019 | 27055 ft | 431 kts | 162° |
| 2026-05-03 21:05 | 52.51358 | -5.80707 | 27444 ft | 433 kts | 162° |
| 2026-05-03 21:05 | 52.48402 | -5.79394 | 27821 ft | 435 kts | 162° |
| 2026-05-03 21:05 | 52.45426 | -5.78075 | 28187 ft | 437 kts | 162° |
| 2026-05-03 21:06 | 52.42450 | -5.76757 | 28559 ft | 439 kts | 162° |
| 2026-05-03 21:06 | 52.39464 | -5.75432 | 28909 ft | 441 kts | 162° |
| 2026-05-03 21:06 | 52.36476 | -5.74013 | 29255 ft | 442 kts | 161° |
| 2026-05-03 21:06 | 52.33483 | -5.72540 | 29589 ft | 444 kts | 161° |
| 2026-05-03 21:07 | 52.30502 | -5.71074 | 29902 ft | 446 kts | 161° |
| 2026-05-03 21:07 | 52.27499 | -5.69608 | 30214 ft | 447 kts | 161° |
| 2026-05-03 21:07 | 52.24467 | -5.68034 | 30622 ft | 445 kts | 158° |
| 2026-05-03 21:07 | 52.21538 | -5.66221 | 31024 ft | 443 kts | 155° |
| 2026-05-03 21:08 | 52.18681 | -5.64280 | 31381 ft | 441 kts | 155° |
| 2026-05-03 21:08 | 52.15848 | -5.62371 | 31716 ft | 439 kts | 155° |
| 2026-05-03 21:08 | 52.13007 | -5.60461 | 32002 ft | 437 kts | 155° |
| 2026-05-03 21:08 | 52.10184 | -5.58569 | 32278 ft | 436 kts | 155° |
| 2026-05-03 21:09 | 52.07402 | -5.56703 | 32519 ft | 436 kts | 155° |
| 2026-05-03 21:09 | 52.04594 | -5.54795 | 32766 ft | 435 kts | 154° |
| 2026-05-03 21:09 | 52.01867 | -5.52714 | 32984 ft | 434 kts | 152° |
| 2026-05-03 21:09 | 51.99126 | -5.50538 | 33193 ft | 434 kts | 152° |
| 2026-05-03 21:10 | 51.96412 | -5.48395 | 33413 ft | 434 kts | 153° |
| 2026-05-03 21:10 | 51.93708 | -5.46265 | 33634 ft | 433 kts | 153° |
| 2026-05-03 21:10 | 51.91002 | -5.44135 | 33847 ft | 432 kts | 153° |
| 2026-05-03 21:10 | 51.88292 | -5.42006 | 34044 ft | 432 kts | 153° |
| 2026-05-03 21:11 | 51.85564 | -5.39867 | 34276 ft | 432 kts | 153° |
| 2026-05-03 21:11 | 51.82865 | -5.37754 | 34478 ft | 432 kts | 153° |
| 2026-05-03 21:11 | 51.80155 | -5.35633 | 34684 ft | 432 kts | 153° |
| 2026-05-03 21:11 | 51.77454 | -5.33523 | 34891 ft | 432 kts | 154° |
| 2026-05-03 21:12 | 51.74748 | -5.31411 | 35097 ft | 432 kts | 154° |
| 2026-05-03 21:12 | 51.72052 | -5.29309 | 35271 ft | 432 kts | 154° |
| 2026-05-03 21:12 | 51.69357 | -5.27211 | 35436 ft | 433 kts | 154° |
| 2026-05-03 21:12 | 51.66663 | -5.25116 | 35598 ft | 433 kts | 154° |
| 2026-05-03 21:13 | 51.63929 | -5.22992 | 35791 ft | 433 kts | 154° |
| 2026-05-03 21:13 | 51.61236 | -5.20904 | 35959 ft | 433 kts | 154° |
| 2026-05-03 21:13 | 51.58543 | -5.18818 | 36120 ft | 433 kts | 154° |
| 2026-05-03 21:13 | 51.55827 | -5.16688 | 36280 ft | 433 kts | 153° |
| 2026-05-03 21:14 | 51.53205 | -5.14395 | 36422 ft | 433 kts | 150° |
| 2026-05-03 21:14 | 51.50621 | -5.11828 | 36550 ft | 434 kts | 147° |
| 2026-05-03 21:14 | 51.48155 | -5.09061 | 36681 ft | 435 kts | 144° |
| 2026-05-03 21:14 | 51.45786 | -5.06071 | 36813 ft | 435 kts | 141° |
| 2026-05-03 21:15 | 51.43509 | -5.02891 | 36942 ft | 436 kts | 139° |
| 2026-05-03 21:15 | 51.41246 | -4.99684 | 37060 ft | 436 kts | 139° |
| 2026-05-03 21:15 | 51.38974 | -4.96474 | 37173 ft | 437 kts | 139° |
| 2026-05-03 21:15 | 51.36706 | -4.93277 | 37287 ft | 437 kts | 139° |
| 2026-05-03 21:16 | 51.34433 | -4.90079 | 37400 ft | 438 kts | 139° |
| 2026-05-03 21:16 | 51.32165 | -4.86894 | 37512 ft | 438 kts | 139° |
| 2026-05-03 21:16 | 51.29863 | -4.83663 | 37613 ft | 439 kts | 139° |
| 2026-05-03 21:16 | 51.27593 | -4.80482 | 37727 ft | 439 kts | 139° |
| 2026-05-03 21:17 | 51.23770 | -4.75130 | 37886 ft | 440 kts | 139° |
| 2026-05-03 21:17 | 51.20703 | -4.70846 | 38003 ft | 441 kts | 140° |
| 2026-05-03 21:17 | 51.18412 | -4.67653 | 38086 ft | 441 kts | 140° |
| 2026-05-03 21:18 | 51.13790 | -4.61224 | 38245 ft | 442 kts | 140° |
| 2026-05-03 21:18 | 51.09180 | -4.54831 | 38418 ft | 443 kts | 140° |
| 2026-05-03 21:19 | 51.04458 | -4.48563 | 38573 ft | 444 kts | 144° |
| 2026-05-03 21:19 | 50.99357 | -4.43091 | 38724 ft | 444 kts | 148° |
| 2026-05-03 21:20 | 50.94132 | -4.37882 | 38845 ft | 445 kts | 148° |
| 2026-05-03 21:20 | 50.88894 | -4.32664 | 38895 ft | 447 kts | 149° |
| 2026-05-03 21:21 | 50.83641 | -4.27444 | 38897 ft | 446 kts | 149° |
| 2026-05-03 21:21 | 50.78394 | -4.22246 | 38895 ft | 446 kts | 149° |
| 2026-05-03 21:22 | 50.73150 | -4.17064 | 38895 ft | 445 kts | 149° |
| 2026-05-03 21:22 | 50.68813 | -4.12789 | 38894 ft | 444 kts | 149° |
| 2026-05-03 21:23 | 50.62704 | -4.06787 | 38893 ft | 445 kts | 149° |
| 2026-05-03 21:23 | 50.57470 | -4.01657 | 38891 ft | 445 kts | 149° |
| 2026-05-03 21:24 | 50.52205 | -3.96513 | 38888 ft | 445 kts | 149° |
| 2026-05-03 21:24 | 50.46973 | -3.91413 | 38892 ft | 444 kts | 149° |
| 2026-05-03 21:25 | 50.41721 | -3.86306 | 38894 ft | 444 kts | 149° |
| 2026-05-03 21:25 | 50.36501 | -3.81244 | 38898 ft | 444 kts | 149° |
| 2026-05-03 21:26 | 50.31273 | -3.76188 | 38903 ft | 444 kts | 149° |
| 2026-05-03 21:26 | 50.26029 | -3.71130 | 38904 ft | 443 kts | 149° |
| 2026-05-03 21:27 | 50.20822 | -3.66120 | 38902 ft | 443 kts | 149° |
| 2026-05-03 21:27 | 50.15564 | -3.61075 | 38901 ft | 443 kts | 149° |
| 2026-05-03 21:28 | 50.10332 | -3.56067 | 38903 ft | 442 kts | 149° |
| 2026-05-03 21:28 | 50.05104 | -3.51077 | 38909 ft | 442 kts | 149° |
| 2026-05-03 21:29 | 49.99870 | -3.46095 | 38911 ft | 442 kts | 149° |
| 2026-05-03 21:29 | 49.94630 | -3.41119 | 38904 ft | 442 kts | 149° |
| 2026-05-03 21:30 | 49.89407 | -3.36173 | 38909 ft | 442 kts | 149° |
| 2026-05-03 21:30 | 49.84072 | -3.31302 | 38906 ft | 441 kts | 154° |
| 2026-05-03 21:31 | 49.78550 | -3.27370 | 38903 ft | 440 kts | 160° |
| 2026-05-03 21:31 | 49.72763 | -3.24444 | 38913 ft | 438 kts | 167° |
| 2026-05-03 21:32 | 49.66814 | -3.22503 | 38906 ft | 437 kts | 171° |
| 2026-05-03 21:32 | 49.60881 | -3.20770 | 38914 ft | 437 kts | 171° |
| 2026-05-03 21:33 | 49.54903 | -3.19025 | 38911 ft | 437 kts | 171° |
| 2026-05-03 21:33 | 49.48935 | -3.17290 | 38917 ft | 437 kts | 171° |
| 2026-05-03 21:34 | 49.42971 | -3.15563 | 38918 ft | 438 kts | 171° |
| 2026-05-03 21:34 | 49.37028 | -3.13846 | 38920 ft | 438 kts | 171° |
| 2026-05-03 21:35 | 49.31047 | -3.12121 | 38921 ft | 437 kts | 171° |
| 2026-05-03 21:35 | 49.25064 | -3.10402 | 38923 ft | 437 kts | 171° |
| 2026-05-03 21:36 | 49.19137 | -3.08700 | 38916 ft | 436 kts | 171° |
| 2026-05-03 21:36 | 49.13174 | -3.06995 | 38924 ft | 436 kts | 171° |
| 2026-05-03 21:37 | 49.07217 | -3.05296 | 38925 ft | 436 kts | 171° |
| 2026-05-03 21:37 | 49.01273 | -3.03603 | 38921 ft | 436 kts | 171° |
| 2026-05-03 21:38 | 48.95308 | -3.01910 | 38921 ft | 437 kts | 171° |
| 2026-05-03 21:38 | 48.89374 | -3.00230 | 38925 ft | 437 kts | 171° |
| 2026-05-03 21:39 | 48.83374 | -2.98536 | 38916 ft | 437 kts | 171° |
| 2026-05-03 21:39 | 48.77403 | -2.96854 | 38920 ft | 438 kts | 171° |
| 2026-05-03 21:40 | 48.71449 | -2.95086 | 38925 ft | 437 kts | 168° |
| 2026-05-03 21:40 | 48.65634 | -2.92618 | 38931 ft | 437 kts | 165° |
| 2026-05-03 21:41 | 48.59809 | -2.90021 | 38934 ft | 438 kts | 165° |
| 2026-05-03 21:41 | 48.53985 | -2.87432 | 38936 ft | 438 kts | 165° |
| 2026-05-03 21:42 | 48.48166 | -2.84847 | 38941 ft | 437 kts | 165° |
| 2026-05-03 21:42 | 48.42337 | -2.82264 | 38941 ft | 438 kts | 165° |
| 2026-05-03 21:43 | 48.36505 | -2.79684 | 38940 ft | 438 kts | 165° |
| 2026-05-03 21:43 | 48.30641 | -2.77094 | 38940 ft | 438 kts | 166° |
| 2026-05-03 21:44 | 48.24811 | -2.74527 | 38924 ft | 438 kts | 166° |
| 2026-05-03 21:44 | 48.18985 | -2.71968 | 38934 ft | 438 kts | 166° |
| 2026-05-03 21:45 | 48.13185 | -2.69428 | 38926 ft | 437 kts | 166° |
| 2026-05-03 21:45 | 48.07360 | -2.66884 | 38929 ft | 437 kts | 166° |
| 2026-05-03 21:46 | 48.01520 | -2.64335 | 38936 ft | 437 kts | 166° |
| 2026-05-03 21:46 | 47.95674 | -2.61791 | 38941 ft | 437 kts | 166° |
| 2026-05-03 21:47 | 47.89846 | -2.59262 | 38937 ft | 437 kts | 166° |
| 2026-05-03 21:47 | 47.84005 | -2.56735 | 38940 ft | 438 kts | 166° |
| 2026-05-03 21:48 | 47.78204 | -2.54229 | 38940 ft | 437 kts | 166° |
| 2026-05-03 21:48 | 47.72525 | -2.51000 | 38945 ft | 441 kts | 156° |
| 2026-05-03 21:49 | 47.67277 | -2.46236 | 38938 ft | 446 kts | 146° |
| 2026-05-03 21:49 | 47.62678 | -2.40078 | 38945 ft | 450 kts | 135° |
| 2026-05-03 21:50 | 47.58566 | -2.33094 | 38938 ft | 450 kts | 134° |
| 2026-05-03 21:50 | 47.54491 | -2.26098 | 38937 ft | 450 kts | 135° |
| 2026-05-03 21:51 | 47.50413 | -2.19136 | 38943 ft | 450 kts | 135° |
| 2026-05-03 21:51 | 47.46316 | -2.12176 | 38943 ft | 450 kts | 135° |
| 2026-05-03 21:52 | 47.42223 | -2.05245 | 38944 ft | 450 kts | 135° |
| 2026-05-03 21:52 | 47.38095 | -1.98267 | 38953 ft | 450 kts | 135° |
| 2026-05-03 21:53 | 47.33998 | -1.91359 | 38948 ft | 450 kts | 135° |
| 2026-05-03 21:53 | 47.29908 | -1.84457 | 38952 ft | 450 kts | 135° |
| 2026-05-03 21:54 | 47.25817 | -1.77570 | 38945 ft | 449 kts | 135° |
| 2026-05-03 21:54 | 47.21690 | -1.70644 | 38948 ft | 449 kts | 135° |
| 2026-05-03 21:55 | 47.17561 | -1.63758 | 38948 ft | 448 kts | 136° |
| 2026-05-03 21:55 | 47.13151 | -1.57392 | 38959 ft | 446 kts | 142° |
| 2026-05-03 21:56 | 47.08548 | -1.51348 | 38953 ft | 447 kts | 142° |
| 2026-05-03 21:56 | 47.03927 | -1.45285 | 38955 ft | 447 kts | 142° |
| 2026-05-03 21:57 | 46.99274 | -1.39189 | 38955 ft | 447 kts | 143° |
| 2026-05-03 21:57 | 46.94658 | -1.33155 | 38944 ft | 447 kts | 143° |
| 2026-05-03 21:58 | 46.90021 | -1.27092 | 38957 ft | 447 kts | 143° |
| 2026-05-03 21:58 | 46.85369 | -1.21030 | 38946 ft | 447 kts | 143° |
| 2026-05-03 21:59 | 46.80746 | -1.15021 | 38957 ft | 447 kts | 143° |
| 2026-05-03 21:59 | 46.76095 | -1.08986 | 38953 ft | 446 kts | 144° |
| 2026-05-03 22:00 | 46.71467 | -1.03000 | 38953 ft | 447 kts | 143° |
| 2026-05-03 22:00 | 46.66804 | -0.96978 | 38490 ft | 447 kts | 144° |
| 2026-05-03 22:01 | 46.64468 | -0.93967 | 37817 ft | 449 kts | 144° |
| 2026-05-03 22:01 | 46.62151 | -0.90984 | 37150 ft | 449 kts | 144° |
| 2026-05-03 22:01 | 46.59811 | -0.87974 | 36566 ft | 447 kts | 145° |
| 2026-05-03 22:01 | 46.57507 | -0.85012 | 36094 ft | 443 kts | 145° |
| 2026-05-03 22:02 | 46.55223 | -0.82063 | 35726 ft | 440 kts | 145° |
| 2026-05-03 22:02 | 46.52961 | -0.79146 | 35312 ft | 437 kts | 146° |
| 2026-05-03 22:02 | 46.50683 | -0.76211 | 34821 ft | 435 kts | 146° |
| 2026-05-03 22:02 | 46.48420 | -0.73401 | 34356 ft | 425 kts | 149° |
| 2026-05-03 22:03 | 46.46108 | -0.70872 | 33966 ft | 413 kts | 152° |
| 2026-05-03 22:03 | 46.43733 | -0.68612 | 33483 ft | 404 kts | 155° |
| 2026-05-03 22:03 | 46.41287 | -0.66596 | 32937 ft | 399 kts | 159° |
| 2026-05-03 22:03 | 46.38819 | -0.64854 | 32330 ft | 397 kts | 162° |
| 2026-05-03 22:04 | 46.36298 | -0.63345 | 31702 ft | 395 kts | 165° |
| 2026-05-03 22:04 | 46.33695 | -0.62047 | 31044 ft | 393 kts | 167° |
| 2026-05-03 22:04 | 46.31108 | -0.60855 | 30354 ft | 393 kts | 167° |
| 2026-05-03 22:04 | 46.28524 | -0.59655 | 29593 ft | 395 kts | 167° |
| 2026-05-03 22:05 | 46.25890 | -0.58436 | 28943 ft | 393 kts | 167° |
| 2026-05-03 22:05 | 46.23316 | -0.57244 | 28427 ft | 388 kts | 167° |
| 2026-05-03 22:05 | 46.20773 | -0.56066 | 27897 ft | 385 kts | 166° |
| 2026-05-03 22:05 | 46.18224 | -0.54893 | 27364 ft | 381 kts | 166° |
| 2026-05-03 22:06 | 46.15728 | -0.53748 | 26848 ft | 377 kts | 166° |
| 2026-05-03 22:06 | 46.13262 | -0.52619 | 26316 ft | 375 kts | 166° |
| 2026-05-03 22:06 | 46.10760 | -0.51473 | 25773 ft | 372 kts | 166° |
| 2026-05-03 22:06 | 46.08321 | -0.50355 | 25256 ft | 370 kts | 166° |
| 2026-05-03 22:07 | 46.05879 | -0.49238 | 24747 ft | 367 kts | 166° |
| 2026-05-03 22:07 | 46.03459 | -0.48132 | 24207 ft | 366 kts | 166° |
| 2026-05-03 22:07 | 46.01058 | -0.47040 | 23668 ft | 364 kts | 165° |
| 2026-05-03 22:07 | 45.98614 | -0.45927 | 23153 ft | 363 kts | 166° |
| 2026-05-03 22:08 | 45.96221 | -0.44834 | 22632 ft | 362 kts | 165° |
| 2026-05-03 22:08 | 45.93823 | -0.43743 | 22072 ft | 362 kts | 165° |
| 2026-05-03 22:08 | 45.91433 | -0.42658 | 21540 ft | 360 kts | 165° |
| 2026-05-03 22:08 | 45.89040 | -0.41571 | 20987 ft | 361 kts | 165° |
| 2026-05-03 22:09 | 45.86647 | -0.40484 | 20401 ft | 362 kts | 165° |
| 2026-05-03 22:09 | 45.84245 | -0.39394 | 19842 ft | 362 kts | 165° |
| 2026-05-03 22:09 | 45.81847 | -0.38309 | 19271 ft | 362 kts | 165° |
| 2026-05-03 22:10 | 45.77035 | -0.36132 | 18131 ft | 362 kts | 165° |
| 2026-05-03 22:10 | 45.74640 | -0.35049 | 17592 ft | 362 kts | 165° |
| 2026-05-03 22:10 | 45.72271 | -0.33981 | 17054 ft | 360 kts | 166° |
| 2026-05-03 22:10 | 45.69873 | -0.32899 | 16545 ft | 359 kts | 166° |
| 2026-05-03 22:11 | 45.67487 | -0.31877 | 16051 ft | 356 kts | 168° |
| 2026-05-03 22:11 | 45.65109 | -0.31107 | 15562 ft | 353 kts | 173° |
| 2026-05-03 22:11 | 45.62691 | -0.30593 | 15063 ft | 350 kts | 176° |
| 2026-05-03 22:11 | 45.60262 | -0.30190 | 14561 ft | 349 kts | 176° |
| 2026-05-03 22:12 | 45.57838 | -0.29795 | 14053 ft | 349 kts | 176° |
| 2026-05-03 22:12 | 45.55438 | -0.29405 | 13530 ft | 348 kts | 176° |
| 2026-05-03 22:12 | 45.53037 | -0.29016 | 13051 ft | 347 kts | 176° |
| 2026-05-03 22:12 | 45.50650 | -0.28627 | 12556 ft | 346 kts | 176° |
| 2026-05-03 22:13 | 45.48270 | -0.28240 | 12075 ft | 344 kts | 175° |
| 2026-05-03 22:13 | 45.45902 | -0.27854 | 11591 ft | 343 kts | 175° |
| 2026-05-03 22:13 | 45.43547 | -0.27472 | 11104 ft | 341 kts | 175° |
| 2026-05-03 22:13 | 45.41203 | -0.27089 | 10632 ft | 338 kts | 174° |
| 2026-05-03 22:14 | 45.38902 | -0.26712 | 10368 ft | 328 kts | 174° |
| 2026-05-03 22:14 | 45.36686 | -0.26350 | 10229 ft | 315 kts | 174° |
| 2026-05-03 22:14 | 45.34553 | -0.26011 | 10075 ft | 303 kts | 173° |
| 2026-05-03 22:14 | 45.32496 | -0.25678 | 9954 ft | 292 kts | 173° |
| 2026-05-03 22:15 | 45.30485 | -0.25343 | 9944 ft | 292 kts | 174° |
| 2026-05-03 22:15 | 45.28469 | -0.25011 | 9941 ft | 291 kts | 174° |
| 2026-05-03 22:15 | 45.26454 | -0.24681 | 9938 ft | 290 kts | 174° |
| 2026-05-03 22:15 | 45.24480 | -0.24360 | 9861 ft | 285 kts | 174° |
| 2026-05-03 22:16 | 45.22509 | -0.24047 | 9486 ft | 284 kts | 174° |
| 2026-05-03 22:16 | 45.20553 | -0.23734 | 9113 ft | 283 kts | 174° |
| 2026-05-03 22:16 | 45.18615 | -0.23428 | 8695 ft | 278 kts | 176° |
| 2026-05-03 22:16 | 45.16729 | -0.23717 | 8020 ft | 277 kts | 204° |
| 2026-05-03 22:17 | 45.15205 | -0.25301 | 7292 ft | 276 kts | 226° |
| 2026-05-03 22:17 | 45.13907 | -0.27290 | 6563 ft | 275 kts | 226° |
| 2026-05-03 22:17 | 45.12613 | -0.29212 | 6102 ft | 265 kts | 225° |
| 2026-05-03 22:17 | 45.11346 | -0.31061 | 5764 ft | 261 kts | 225° |
| 2026-05-03 22:18 | 45.10081 | -0.32896 | 5442 ft | 260 kts | 224° |
| 2026-05-03 22:18 | 45.08814 | -0.34705 | 5131 ft | 258 kts | 223° |
| 2026-05-03 22:18 | 45.07539 | -0.36488 | 4821 ft | 257 kts | 223° |
| 2026-05-03 22:18 | 45.06267 | -0.38253 | 4512 ft | 256 kts | 223° |
| 2026-05-03 22:19 | 45.05013 | -0.39996 | 4206 ft | 255 kts | 223° |
| 2026-05-03 22:19 | 45.03751 | -0.41751 | 3902 ft | 254 kts | 223° |
| 2026-05-03 22:19 | 45.02500 | -0.43491 | 3709 ft | 246 kts | 222° |
| 2026-05-03 22:19 | 45.01308 | -0.45152 | 3635 ft | 234 kts | 222° |
| 2026-05-03 22:20 | 45.00176 | -0.46727 | 3562 ft | 223 kts | 222° |
| 2026-05-03 22:20 | 44.99076 | -0.48251 | 3489 ft | 223 kts | 223° |
| 2026-05-03 22:20 | 44.97964 | -0.49811 | 3287 ft | 225 kts | 223° |
| 2026-05-03 22:20 | 44.96885 | -0.51359 | 3032 ft | 222 kts | 223° |
| 2026-05-03 22:21 | 44.95825 | -0.52893 | 2968 ft | 210 kts | 224° |
| 2026-05-03 22:21 | 44.94877 | -0.54331 | 3069 ft | 193 kts | 225° |
| 2026-05-03 22:21 | 44.93982 | -0.55673 | 2943 ft | 182 kts | 223° |
| 2026-05-03 22:21 | 44.93121 | -0.56925 | 2719 ft | 176 kts | 223° |
| 2026-05-03 22:22 | 44.92263 | -0.58150 | 2471 ft | 172 kts | 222° |
| 2026-05-03 22:22 | 44.91433 | -0.59329 | 2237 ft | 167 kts | 223° |
| 2026-05-03 22:22 | 44.90651 | -0.60442 | 2038 ft | 153 kts | 222° |
| 2026-05-03 22:22 | 44.89927 | -0.61473 | 1809 ft | 143 kts | 223° |
| 2026-05-03 22:23 | 44.89229 | -0.62474 | 1608 ft | 143 kts | 224° |
| 2026-05-03 22:23 | 44.88537 | -0.63481 | 1481 ft | 142 kts | 223° |
| 2026-05-03 22:23 | 44.87842 | -0.64472 | 1323 ft | 142 kts | 223° |
| 2026-05-03 22:23 | 44.87145 | -0.65454 | 1117 ft | 141 kts | 223° |
| 2026-05-03 22:24 | 44.86456 | -0.66429 | 932 ft | 140 kts | 223° |
| 2026-05-03 22:24 | 44.85769 | -0.67405 | 737 ft | 139 kts | 223° |
| 2026-05-03 22:24 | 44.85090 | -0.68363 | 526 ft | 138 kts | 223° |
| 2026-05-03 22:24 | 44.84423 | -0.69314 | 346 ft | 136 kts | 223° |
| 2026-05-03 22:25 | 44.83763 | -0.70253 | 183 ft | 135 kts | 223° |
| 2026-05-03 22:25 | 44.83146 | -0.71128 | 164 ft | 105 kts | 225° |
| 2026-05-03 22:25 | 44.82759 | -0.71683 | 167 ft | 54 kts | 225° |
| 2026-05-03 22:25 | 44.82613 | -0.71895 | 167 ft | 15 kts | 225° |
| 2026-05-03 22:26 | 44.82517 | -0.71888 | 164 ft | 17 kts | 129° |
| 2026-05-03 22:26 | 44.82456 | -0.71763 | 166 ft | 15 kts | 120° |
| 2026-05-03 22:26 | 44.82474 | -0.71643 | 168 ft | 14 kts | 45° |
| 2026-05-03 22:26 | 44.82555 | -0.71527 | 166 ft | 18 kts | 45° |
| 2026-05-03 22:27 | 44.82647 | -0.71397 | 169 ft | 18 kts | 45° |
| 2026-05-03 22:27 | 44.82738 | -0.71268 | 169 ft | 18 kts | 44° |
| 2026-05-03 22:27 | 44.82832 | -0.71135 | 168 ft | 19 kts | 45° |